Terminal Aerodrome Forecast
Issued by NWS

Home | Current Version | Previous Version | Graphics & Text | Print | Product List | Glossary On
Versions: 1 2 3 4 5 6 7 8 9 10 11 12 13 14 15
000
FTUS43 KBIS 150433 AAA
TAFJMS
TAF AMD
KJMS 150433Z 1505/1524 29013KT P6SM BKN025 OVC035
     FM150600 34014KT 3SM -SN OVC015
     FM150800 35016KT 3SM -SN BLSN OVC016
      TEMPO 1508/1512 1 1/2SM -SN BLSN OVC012
     FM151500 35018G26KT 4SM BLSN OVC018
     FM152100 33016KT P6SM SCT018 BKN100=

USA.gov is the U.S. government's official web portal to all federal, state and local government web resources and services.